Time;durP1;ratioP1;P1;durP2;ratioP2;P2;SDS_P1;SDS_P2;PMS_P1;PMS_P2;Temp;Humidity;BMP_temperature;BMP_pressure;BME280_temperature;BME280_humidity;BME280_pressure;Samples;Min_cycle;Max_cycle;Signal;HPM_P1;HPM_P2
2022/08/15 00:00:33;;;;;;;23.00;13.20;;;;;;;19.38;70.68;98258.27;105840;1277;97865;-74
2022/08/15 00:03:16;;;;;;;27.60;14.70;;;;;;;19.38;70.73;98254.90;105845;1276;111484;-73
2022/08/15 00:05:48;;;;;;;24.70;13.10;;;;;;;19.37;70.82;98255.89;105918;1276;97986;-74
2022/08/15 00:08:18;;;;;;;27.50;14.30;;;;;;;19.36;70.76;98254.02;105691;1278;107684;-71
2022/08/15 00:11:11;;;;;;;24.00;13.40;;;;;;;19.35;70.87;98245.17;105879;1276;97996;-73
2022/08/15 00:13:53;;;;;;;25.80;13.40;;;;;;;19.33;70.94;98242.29;105988;1276;98100;-74
2022/08/15 00:16:35;;;;;;;21.90;12.90;;;;;;;19.31;70.92;98243.23;105930;1276;111449;-71
2022/08/15 00:19:16;;;;;;;23.40;13.80;;;;;;;19.30;70.93;98235.00;105888;1276;96294;-73
2022/08/15 00:21:50;;;;;;;24.20;12.90;;;;;;;19.28;70.96;98227.47;105859;1276;107665;-72
2022/08/15 00:24:23;;;;;;;25.70;13.30;;;;;;;19.27;71.02;98225.45;105860;1276;95297;-72
2022/08/15 00:27:03;;;;;;;23.90;13.50;;;;;;;19.25;71.05;98217.46;105913;1276;97970;-74
2022/08/15 00:29:37;;;;;;;25.80;14.60;;;;;;;19.23;71.05;98210.14;105869;1276;111420;-74
2022/08/15 00:32:16;;;;;;;26.10;13.70;;;;;;;19.21;71.00;98210.16;105960;1276;97987;-74
2022/08/15 00:35:35;;;;;;;22.30;12.20;;;;;;;19.18;71.19;98211.61;105908;1276;108375;-75
2022/08/15 00:37:57;;;;;;;24.00;13.30;;;;;;;19.16;71.16;98206.98;105886;1276;98025;-74
2022/08/15 00:43:39;;;;;;;25.50;13.60;;;;;;;19.10;71.28;98209.00;105822;1276;111520;-73
2022/08/15 00:46:18;;;;;;;24.40;14.00;;;;;;;19.08;71.17;98216.30;105916;1276;98018;-74
2022/08/15 00:48:53;;;;;;;23.20;13.10;;;;;;;19.04;71.28;98227.12;105835;1276;107748;-73
2022/08/15 00:51:39;;;;;;;22.50;13.10;;;;;;;19.02;71.24;98236.00;105867;1276;95345;-72
2022/08/15 00:54:47;;;;;;;21.40;11.50;;;;;;;19.00;71.27;98237.30;105806;1276;97978;-74
2022/08/15 00:57:36;;;;;;;24.00;11.20;;;;;;;18.93;71.16;98241.95;105863;1275;111506;-74
2022/08/15 01:00:35;;;;;;;21.40;9.40;;;;;;;18.87;71.41;98240.25;105733;1276;95202;-76
2022/08/15 01:03:16;;;;;;;17.80;9.30;;;;;;;18.86;71.35;98242.36;105959;1276;106601;-74
2022/08/15 01:05:48;;;;;;;18.10;9.10;;;;;;;18.86;71.41;98243.42;105892;1276;97009;-73
2022/08/15 01:08:26;;;;;;;18.00;8.60;;;;;;;18.87;71.42;98242.98;105879;1276;95247;-74
2022/08/15 01:11:19;;;;;;;19.00;8.60;;;;;;;18.86;71.31;98239.08;105968;1276;111426;-75
2022/08/15 01:13:52;;;;;;;17.90;8.60;;;;;;;18.80;71.18;98231.94;105943;1276;97905;-73
2022/08/15 01:16:40;;;;;;;15.20;7.50;;;;;;;18.72;71.23;98230.63;105947;1276;107770;-73
2022/08/15 01:19:25;;;;;;;17.40;7.60;;;;;;;18.67;71.23;98226.33;105929;1276;97951;-72
2022/08/15 01:22:16;;;;;;;17.00;7.90;;;;;;;18.65;71.41;98223.39;105885;1276;95957;-72
2022/08/15 01:24:56;;;;;;;16.90;7.70;;;;;;;18.66;71.49;98224.65;105843;1276;111259;-74
2022/08/15 01:28:07;;;;;;;15.80;7.30;;;;;;;18.67;71.44;98220.58;105869;1276;97976;-73
2022/08/15 01:30:50;;;;;;;18.80;7.80;;;;;;;18.64;71.43;98227.63;105899;1276;107668;-74
2022/08/15 01:33:38;;;;;;;17.90;7.10;;;;;;;18.63;71.51;98230.95;105919;1276;97996;-73
2022/08/15 01:36:09;;;;;;;16.30;7.60;;;;;;;18.65;71.55;98229.11;105935;1276;98026;-74
2022/08/15 01:39:09;;;;;;;15.50;7.60;;;;;;;18.67;71.67;98224.05;105976;1277;111349;-72
2022/08/15 01:42:02;;;;;;;15.20;7.60;;;;;;;18.68;71.65;98224.20;105943;1277;98012;-73
2022/08/15 01:44:44;;;;;;;14.00;7.00;;;;;;;18.70;71.67;98224.84;105797;1278;108866;-73
2022/08/15 01:47:39;;;;;;;13.70;7.00;;;;;;;18.71;71.69;98225.27;105881;1276;97993;-71
2022/08/15 01:50:13;;;;;;;16.80;7.20;;;;;;;18.72;71.69;98220.14;105928;1277;97886;-73
2022/08/15 01:53:09;;;;;;;15.90;6.70;;;;;;;18.72;71.63;98224.45;105988;1276;111428;-72
2022/08/15 01:56:12;;;;;;;14.70;6.60;;;;;;;18.71;71.63;98222.58;106145;1276;97980;-71
2022/08/15 01:59:04;;;;;;;14.70;6.50;;;;;;;18.71;71.66;98216.86;106000;1276;107753;-72
2022/08/15 02:01:51;;;;;;;16.40;7.10;;;;;;;18.70;71.67;98219.08;106093;1276;97776;-71
2022/08/15 02:04:31;;;;;;;16.60;6.20;;;;;;;18.70;71.66;98223.83;106040;1276;97886;-72
2022/08/15 02:07:12;;;;;;;15.00;6.50;;;;;;;18.69;71.69;98223.79;105982;1277;111414;-72
2022/08/15 02:09:52;;;;;;;12.80;6.50;;;;;;;18.68;71.78;98223.70;105997;1279;97934;-72
2022/08/15 02:12:26;;;;;;;15.50;6.40;;;;;;;18.67;71.69;98225.42;105960;1277;107741;-70
2022/08/15 02:15:19;;;;;;;13.90;6.70;;;;;;;18.66;71.64;98224.70;105955;1276;95302;-73
2022/08/15 02:17:49;;;;;;;14.50;7.00;;;;;;;18.63;71.72;98216.58;106048;1277;97945;-73
2022/08/15 02:20:23;;;;;;;13.20;6.40;;;;;;;18.60;71.68;98218.52;105877;1277;111446;-73
2022/08/15 02:22:55;;;;;;;13.40;5.70;;;;;;;18.58;71.69;98222.34;105894;1277;96198;-72
2022/08/15 02:25:24;;;;;;;13.90;5.90;;;;;;;18.57;71.71;98226.92;105880;1277;107762;-73
2022/08/15 02:27:55;;;;;;;14.40;6.40;;;;;;;18.56;71.81;98226.20;106037;1277;95607;-73
2022/08/15 02:30:28;;;;;;;15.40;6.20;;;;;;;18.54;71.75;98226.55;105935;1276;97891;-73
2022/08/15 02:33:03;;;;;;;11.80;6.20;;;;;;;18.51;71.78;98221.24;105875;1276;111380;-72
2022/08/15 02:35:32;;;;;;;17.90;7.20;;;;;;;18.47;71.78;98216.00;105957;1276;95279;-73
2022/08/15 02:38:04;;;;;;;12.40;6.30;;;;;;;18.42;71.69;98208.96;105892;1279;109306;-70
2022/08/15 02:40:50;;;;;;;12.50;5.70;;;;;;;18.41;71.86;98213.60;105929;1279;96035;-73
2022/08/15 02:43:20;;;;;;;13.60;5.90;;;;;;;18.41;71.82;98211.48;105955;1277;97939;-73
2022/08/15 02:45:50;;;;;;;10.90;5.30;;;;;;;18.40;71.70;98209.35;105903;1276;111930;-73
2022/08/15 02:48:40;;;;;;;13.70;6.20;;;;;;;18.40;71.88;98205.83;105985;1277;97792;-73
2022/08/15 02:51:29;;;;;;;11.70;5.70;;;;;;;18.39;71.91;98205.64;105964;1276;107659;-72
2022/08/15 02:54:22;;;;;;;13.20;5.50;;;;;;;18.38;71.75;98205.77;105894;1276;97887;-72
2022/08/15 02:57:09;;;;;;;14.90;6.00;;;;;;;18.36;71.90;98206.64;105895;1276;97884;-71
2022/08/15 02:59:41;;;;;;;12.40;5.40;;;;;;;18.35;71.71;98210.68;105915;1276;111428;-74
2022/08/15 03:02:12;;;;;;;13.40;5.60;;;;;;;18.34;71.91;98211.04;105959;1276;98597;-73
2022/08/15 03:05:02;;;;;;;12.30;5.60;;;;;;;18.33;71.83;98202.54;105832;1276;107708;-73
2022/08/15 03:07:30;;;;;;;12.80;5.50;;;;;;;18.32;71.67;98202.52;105830;1277;98107;-73
2022/08/15 03:10:03;;;;;;;11.10;5.70;;;;;;;18.29;71.75;98205.12;105878;1276;95326;-73
2022/08/15 03:12:31;;;;;;;15.40;6.40;;;;;;;18.26;71.78;98205.62;106012;1276;111472;-73
2022/08/15 03:15:03;;;;;;;14.20;6.20;;;;;;;18.25;71.78;98208.52;105944;1276;97989;-73
2022/08/15 03:17:30;;;;;;;11.10;5.20;;;;;;;18.24;71.85;98211.13;105900;1276;107720;-73
2022/08/15 03:20:06;;;;;;;12.80;5.60;;;;;;;18.24;71.71;98210.55;105982;1276;97888;-73
2022/08/15 03:22:45;;;;;;;13.50;5.80;;;;;;;18.24;71.82;98213.69;105964;1276;97953;-73
2022/08/15 03:25:20;;;;;;;14.10;5.80;;;;;;;18.23;71.82;98216.11;105982;1276;111359;-72
2022/08/15 03:28:00;;;;;;;9.80;5.50;;;;;;;18.22;71.79;98213.88;105916;1276;97938;-73
2022/08/15 03:30:44;;;;;;;13.00;6.50;;;;;;;18.21;72.00;98212.73;105848;1276;107827;-73
2022/08/15 03:33:12;;;;;;;11.10;5.30;;;;;;;18.20;71.86;98214.61;105857;1276;98619;-73
2022/08/15 03:35:50;;;;;;;14.80;6.00;;;;;;;18.19;71.90;98213.56;105899;1276;95182;-73
2022/08/15 03:38:27;;;;;;;12.90;6.20;;;;;;;18.19;71.94;98216.91;105888;1276;111417;-72
2022/08/15 03:41:17;;;;;;;12.50;5.50;;;;;;;18.20;72.00;98215.56;106062;1276;98017;-71
2022/08/15 03:43:50;;;;;;;11.40;5.80;;;;;;;18.20;71.91;98216.80;105885;1276;107617;-73
2022/08/15 03:46:22;;;;;;;13.90;5.70;;;;;;;18.21;71.98;98217.88;105957;1276;97948;-72
2022/08/15 03:48:56;;;;;;;12.90;5.80;;;;;;;18.23;71.96;98219.74;106025;1276;97877;-73
2022/08/15 03:51:29;;;;;;;12.60;6.10;;;;;;;18.22;71.98;98219.41;103484;1277;3362927;-73
2022/08/15 03:54:02;;;;;;;11.90;5.50;;;;;;;18.21;71.95;98214.05;105923;1276;97996;-72
2022/08/15 03:56:34;;;;;;;13.10;6.10;;;;;;;18.18;72.04;98218.48;105838;1276;106563;-73
2022/08/15 03:59:05;;;;;;;12.10;6.00;;;;;;;18.19;72.01;98218.94;105848;1277;98062;-73
2022/08/15 04:01:41;;;;;;;13.50;6.20;;;;;;;18.21;72.14;98224.27;105780;1276;95312;-72
2022/08/15 04:04:11;;;;;;;15.00;6.80;;;;;;;18.22;72.03;98225.58;105948;1276;111406;-71
2022/08/15 04:06:45;;;;;;;14.80;6.60;;;;;;;18.23;72.19;98227.63;105969;1276;97921;-72
2022/08/15 04:09:30;;;;;;;13.70;5.90;;;;;;;18.22;72.07;98233.09;105860;1276;107758;-70
2022/08/15 04:12:00;;;;;;;12.10;6.30;;;;;;;18.22;72.12;98227.09;105822;1276;97949;-73
2022/08/15 04:14:28;;;;;;;14.50;5.90;;;;;;;18.23;72.31;98226.55;105856;1276;96954;-72
2022/08/15 04:17:03;;;;;;;15.90;7.00;;;;;;;18.22;72.19;98226.38;105878;1276;111473;-71
2022/08/15 04:19:47;;;;;;;13.90;6.50;;;;;;;18.22;72.16;98223.02;105924;1276;98288;-69
2022/08/15 04:22:34;;;;;;;12.30;6.00;;;;;;;18.22;72.28;98228.27;105860;1276;107822;-71
2022/08/15 04:25:11;;;;;;;13.80;6.30;;;;;;;18.22;72.23;98229.67;105721;1276;99003;-70
2022/08/15 04:27:50;;;;;;;14.30;6.80;;;;;;;18.21;72.11;98226.77;105823;1276;96085;-70
2022/08/15 04:30:26;;;;;;;13.30;6.10;;;;;;;18.20;72.15;98221.83;105838;1276;111403;-71
2022/08/15 04:33:07;;;;;;;15.60;6.60;;;;;;;18.20;72.28;98225.02;105844;1276;97881;-70
2022/08/15 04:36:09;;;;;;;14.90;6.30;;;;;;;18.20;72.38;98224.14;105896;1276;107767;-71
2022/08/15 04:38:51;;;;;;;17.00;6.70;;;;;;;18.20;72.31;98226.09;105844;1276;98012;-72
2022/08/15 04:41:20;;;;;;;13.90;6.60;;;;;;;18.20;72.40;98222.40;105873;1276;98146;-71
2022/08/15 04:44:07;;;;;;;13.90;5.90;;;;;;;18.20;72.33;98217.21;105855;1277;111280;-73
2022/08/15 04:46:46;;;;;;;18.60;6.30;;;;;;;18.20;72.15;98215.23;105903;1276;97976;-71
2022/08/15 04:49:16;;;;;;;13.90;6.50;;;;;;;18.18;72.32;98211.82;105871;1276;108250;-71
2022/08/15 04:51:49;;;;;;;11.60;5.50;;;;;;;18.18;72.30;98211.11;105873;1276;97970;-71
2022/08/15 04:54:17;;;;;;;14.00;6.50;;;;;;;18.17;72.30;98213.77;105895;1276;97829;-72
2022/08/15 04:56:45;;;;;;;13.30;6.20;;;;;;;18.16;72.30;98216.24;105846;1276;111497;-71
2022/08/15 04:59:20;;;;;;;12.60;6.10;;;;;;;18.15;72.50;98216.29;105879;1276;97846;-72
2022/08/15 05:02:08;;;;;;;16.10;6.60;;;;;;;18.18;72.66;98215.48;105742;1276;107848;-72
2022/08/15 05:04:56;;;;;;;14.80;6.60;;;;;;;18.19;72.55;98217.13;105874;1276;97891;-71
2022/08/15 05:07:29;;;;;;;15.00;6.50;;;;;;;18.21;72.55;98221.39;105869;1276;96647;-72
2022/08/15 05:10:08;;;;;;;15.10;6.40;;;;;;;18.22;72.48;98219.75;105920;1276;110351;-72
2022/08/15 05:12:40;;;;;;;14.80;6.60;;;;;;;18.22;72.51;98219.96;105923;1276;97979;-71
2022/08/15 05:15:11;;;;;;;15.40;6.50;;;;;;;18.20;72.53;98218.19;105997;1276;108177;-71
2022/08/15 05:17:41;;;;;;;14.20;6.30;;;;;;;18.21;72.55;98220.40;105889;1275;98376;-73
2022/08/15 05:20:25;;;;;;;12.60;6.20;;;;;;;18.25;72.78;98223.77;105899;1276;95251;-72
2022/08/15 05:22:59;;;;;;;13.50;6.20;;;;;;;18.28;72.48;98222.63;105917;1276;111395;-71
2022/08/15 05:25:35;;;;;;;14.80;6.20;;;;;;;18.33;72.76;98222.45;106040;1276;95201;-72
2022/08/15 05:28:13;;;;;;;16.30;6.50;;;;;;;18.38;72.81;98218.94;105992;1276;107438;-72
2022/08/15 05:31:07;;;;;;;14.60;6.10;;;;;;;18.45;72.61;98216.52;105983;1276;97963;-73
2022/08/15 05:33:46;;;;;;;13.50;6.40;;;;;;;18.53;72.69;98220.57;105960;1276;96196;-70
2022/08/15 05:36:29;;;;;;;16.70;6.00;;;;;;;18.63;72.72;98224.36;105881;1276;111539;-71
2022/08/15 05:39:03;;;;;;;;;;;;;;;18.70;72.57;98223.23;106015;1276;97957;-73
2022/08/15 05:41:50;;;;;;;13.10;5.90;;;;;;;18.77;72.67;98224.55;105757;1279;107727;-74
2022/08/15 05:44:22;;;;;;;14.10;5.40;;;;;;;18.86;72.62;98228.50;105984;1276;97880;-74
2022/08/15 05:47:19;;;;;;;11.20;5.40;;;;;;;18.94;72.65;98229.27;106012;1276;97870;-73
2022/08/15 05:49:53;;;;;;;15.80;5.80;;;;;;;18.98;72.58;98232.09;105964;1276;111499;-73
2022/08/15 05:52:52;;;;;;;14.90;5.70;;;;;;;19.03;72.50;98231.23;105979;1276;95644;-71
2022/08/15 05:55:51;;;;;;;12.30;5.60;;;;;;;19.06;72.50;98227.97;105969;1276;105719;-71
2022/08/15 05:59:01;;;;;;;11.80;5.30;;;;;;;19.15;72.56;98229.04;105921;1276;97965;-72
2022/08/15 06:01:41;;;;;;;11.30;5.60;;;;;;;19.24;72.53;98231.22;105859;1276;96359;-73
2022/08/15 06:05:08;;;;;;;15.80;6.20;;;;;;;19.28;72.56;98233.19;105827;1276;111366;-73
2022/08/15 06:07:46;;;;;;;13.50;5.40;;;;;;;19.36;72.50;98241.41;106078;1276;97911;-74
2022/08/15 06:10:36;;;;;;;15.80;5.70;;;;;;;19.44;72.42;98243.17;106583;1276;108227;-75
2022/08/15 06:13:28;;;;;;;16.10;5.80;;;;;;;19.50;72.49;98239.31;106137;1276;97841;-72
2022/08/15 06:16:16;;;;;;;12.60;5.00;;;;;;;19.57;72.51;98226.30;106111;1276;97427;-74
2022/08/15 06:19:07;;;;;;;;;;;;;;;19.65;72.59;98226.22;106014;1277;111412;-74
2022/08/15 06:21:54;;;;;;;10.80;5.10;;;;;;;19.68;72.58;98226.14;106120;1276;97920;-70
2022/08/15 06:24:58;;;;;;;12.70;5.30;;;;;;;19.73;72.59;98230.39;106013;1276;107736;-69
2022/08/15 06:28:09;;;;;;;10.90;5.60;;;;;;;19.76;72.50;98229.62;106025;1276;95263;-73
2022/08/15 06:31:09;;;;;;;11.80;5.20;;;;;;;19.81;72.52;98232.45;106011;1276;98331;-71
2022/08/15 06:34:04;;;;;;;11.20;5.50;;;;;;;19.88;72.58;98232.95;105954;1276;110607;-69
2022/08/15 06:37:44;;;;;;;10.30;5.50;;;;;;;19.94;72.55;98234.48;105889;1279;97898;-69
2022/08/15 06:40:36;;;;;;;14.00;5.30;;;;;;;20.01;72.55;98233.45;105774;1276;107770;-70
2022/08/15 06:43:10;;;;;;;14.10;5.50;;;;;;;20.07;72.60;98230.48;105828;1277;96280;-72
2022/08/15 06:45:49;;;;;;;10.90;4.90;;;;;;;20.15;72.69;98233.89;105982;1276;96316;-71
2022/08/15 06:48:29;;;;;;;16.10;5.80;;;;;;;20.22;72.58;98233.77;105876;1279;111197;-70
2022/08/15 06:51:18;;;;;;;15.80;5.70;;;;;;;20.28;72.56;98233.53;105934;1276;95393;-71
2022/08/15 06:53:54;;;;;;;14.90;6.10;;;;;;;20.33;72.51;98229.66;105956;1276;107986;-70
2022/08/15 06:56:46;;;;;;;15.20;5.80;;;;;;;20.40;72.46;98228.97;105885;1276;98024;-69
2022/08/15 06:59:48;;;;;;;14.20;6.20;;;;;;;20.48;72.45;98230.65;105953;1276;95363;-69
2022/08/15 07:02:44;;;;;;;13.80;5.80;;;;;;;20.56;72.45;98227.44;105923;1276;111484;-69
2022/08/15 07:05:23;;;;;;;16.20;6.40;;;;;;;20.66;72.45;98233.73;106008;1276;97950;-69
2022/08/15 07:08:06;;;;;;;14.70;6.00;;;;;;;20.77;72.51;98235.04;106072;1276;107710;-68
2022/08/15 07:10:50;;;;;;;13.70;6.40;;;;;;;20.90;72.22;98238.56;105992;1276;95270;-69
2022/08/15 07:13:31;;;;;;;16.20;6.20;;;;;;;21.08;72.36;98238.30;105759;1277;96280;-73
2022/08/15 07:16:24;;;;;;;13.00;5.90;;;;;;;21.61;71.65;98231.02;107690;1276;111316;-76
2022/08/15 07:18:59;;;;;;;13.10;5.80;;;;;;;22.81;70.29;98229.35;107769;1276;96187;-74
2022/08/15 07:21:27;;;;;;;13.70;4.70;;;;;;;24.11;69.96;98224.77;107702;1276;106972;-70
2022/08/15 07:24:27;;;;;;;15.60;5.90;;;;;;;25.58;69.78;98228.35;105630;1276;97972;-72
2022/08/15 07:27:03;;;;;;;13.50;5.30;;;;;;;26.98;69.55;98229.17;105874;1276;97101;-71
2022/08/15 07:29:49;;;;;;;10.60;4.90;;;;;;;28.42;69.07;98228.98;105978;1276;111353;-70
2022/08/15 07:32:59;;;;;;;9.20;5.10;;;;;;;29.95;68.51;98224.48;106046;1276;97960;-72
2022/08/15 07:35:36;;;;;;;10.50;4.90;;;;;;;31.43;68.25;98226.73;105897;1276;107718;-73
2022/08/15 07:38:12;;;;;;;9.50;4.30;;;;;;;32.52;67.64;98224.84;105966;1276;97993;-73
2022/08/15 07:41:14;;;;;;;13.40;5.10;;;;;;;33.63;67.30;98225.11;105955;1276;97867;-75
2022/08/15 07:43:45;;;;;;;10.90;4.30;;;;;;;34.58;67.00;98227.56;105951;1278;111545;-71
2022/08/15 07:46:21;;;;;;;11.70;4.60;;;;;;;35.29;67.16;98230.85;105851;1278;95774;-68
2022/08/15 07:49:07;;;;;;;11.60;5.00;;;;;;;35.99;66.74;98233.42;105953;1276;108230;-70
2022/08/15 07:51:57;;;;;;;9.50;4.80;;;;;;;36.25;66.38;98235.19;105885;1276;97978;-70
2022/08/15 07:54:33;;;;;;;11.20;4.60;;;;;;;35.68;65.21;98239.23;105861;1279;97964;-68
2022/08/15 07:57:24;;;;;;;9.10;4.60;;;;;;;35.52;64.87;98243.92;105990;1276;112216;-70
2022/08/15 08:00:13;;;;;;;11.00;5.00;;;;;;;36.17;64.76;98238.84;106004;1276;96316;-70
2022/08/15 08:03:25;;;;;;;;;;;;;;;36.82;63.37;98232.56;105962;1276;108773;-69
2022/08/15 08:06:29;;;;;;;8.70;4.80;;;;;;;37.06;63.17;98229.95;106025;1276;97983;-70
2022/08/15 08:09:30;;;;;;;11.90;5.10;;;;;;;37.00;61.49;98227.23;105989;1277;97978;-69
2022/08/15 08:12:30;;;;;;;12.70;5.00;;;;;;;37.60;61.57;98219.70;106063;1276;111152;-69
2022/08/15 08:15:24;;;;;;;11.40;5.00;;;;;;;37.81;60.36;98219.70;106029;1276;98434;-71
2022/08/15 08:18:30;;;;;;;11.80;4.50;;;;;;;38.48;60.21;98219.09;105875;1278;107169;-72
2022/08/15 08:21:05;;;;;;;10.90;5.00;;;;;;;39.26;59.76;98223.79;106064;1277;97972;-69
2022/08/15 08:23:46;;;;;;;8.30;4.60;;;;;;;39.84;59.02;98225.80;106116;1277;96298;-72
2022/08/15 08:26:41;;;;;;;8.00;4.60;;;;;;;40.40;58.25;98225.00;106021;1276;111539;-72
2022/08/15 08:29:38;;;;;;;11.30;4.70;;;;;;;40.78;57.37;98227.36;106035;1276;97749;-69
2022/08/15 08:32:13;;;;;;;7.20;4.30;;;;;;;40.86;57.06;98225.77;105954;1276;108826;-72
2022/08/15 08:35:37;;;;;;;9.40;4.60;;;;;;;40.52;56.29;98226.06;105955;1276;95284;-73
2022/08/15 08:38:25;;;;;;;8.70;4.90;;;;;;;40.23;55.50;98228.80;106008;1276;97899;-71
2022/08/15 08:41:34;;;;;;;9.30;4.70;;;;;;;40.09;54.91;98229.58;105910;1276;111200;-69
2022/08/15 08:44:33;;;;;;;9.10;4.80;;;;;;;39.42;54.00;98232.51;105882;1276;98001;-68
2022/08/15 08:47:35;;;;;;;9.60;5.40;;;;;;;38.62;53.36;98232.44;105914;1276;108219;-70
2022/08/15 08:50:18;;;;;;;11.90;5.40;;;;;;;37.94;53.11;98235.94;105945;1276;97888;-69
2022/08/15 08:53:11;;;;;;;9.90;5.20;;;;;;;37.39;52.35;98236.67;105751;1276;97082;-70
2022/08/15 08:55:52;;;;;;;11.80;5.30;;;;;;;36.78;51.62;98240.77;105850;1276;111280;-69
2022/08/15 08:58:23;;;;;;;11.20;5.30;;;;;;;36.35;51.18;98244.77;105889;1276;97858;-70
2022/08/15 09:01:08;;;;;;;10.40;5.30;;;;;;;35.84;50.67;98242.21;105878;1276;107737;-69
2022/08/15 09:03:51;;;;;;;12.60;5.20;;;;;;;35.67;49.99;98236.98;105867;1276;98100;-71
2022/08/15 09:06:27;;;;;;;11.60;5.20;;;;;;;36.05;49.95;98228.58;105958;1276;97964;-71
2022/08/15 09:09:11;;;;;;;10.30;4.70;;;;;;;35.93;49.08;98228.86;105698;1276;110262;-71
2022/08/15 09:11:50;;;;;;;8.80;4.60;;;;;;;35.64;48.02;98229.11;105738;1277;98413;-70
2022/08/15 09:14:36;;;;;;;11.60;5.10;;;;;;;35.39;47.41;98228.64;105888;1276;107910;-79
2022/08/15 09:17:27;;;;;;;8.30;4.60;;;;;;;35.24;47.26;98226.02;105958;1276;97901;-72
2022/08/15 09:20:08;;;;;;;10.10;4.90;;;;;;;35.29;47.11;98226.98;105962;1276;95317;-75
2022/08/15 09:22:39;;;;;;;10.20;5.10;;;;;;;35.45;46.59;98220.33;105878;1276;111404;-72
2022/08/15 09:25:08;;;;;;;11.50;5.20;;;;;;;35.89;46.93;98223.59;105913;1276;97755;-72
2022/08/15 09:28:08;;;;;;;13.50;5.20;;;;;;;36.45;46.76;98220.13;105872;1276;107728;-73
2022/08/15 09:31:16;;;;;;;7.40;4.50;;;;;;;37.14;46.63;98212.95;105761;1276;97938;-76
2022/08/15 09:34:17;;;;;;;8.90;4.90;;;;;;;37.50;46.01;98211.12;105841;1276;97886;-76
2022/08/15 09:37:19;;;;;;;11.10;5.00;;;;;;;37.72;45.82;98214.91;105951;1276;111321;-83
2022/08/15 09:40:15;;;;;;;11.20;5.10;;;;;;;38.15;46.06;98215.41;105943;1276;97432;-78
2022/08/15 09:43:25;;;;;;;10.70;4.70;;;;;;;37.75;44.86;98210.16;105765;1276;107519;-76
2022/08/15 09:46:28;;;;;;;9.80;4.80;;;;;;;37.18;44.74;98210.59;105734;1277;97868;-74
2022/08/15 09:49:18;;;;;;;9.20;4.50;;;;;;;36.56;43.95;98209.66;105720;1276;96541;-73
2022/08/15 09:52:10;;;;;;;8.30;4.70;;;;;;;36.37;43.96;98209.58;105840;1276;111466;-74
2022/08/15 09:55:47;;;;;;;8.10;4.50;;;;;;;36.05;42.96;98212.96;106274;1276;98501;-79
2022/08/15 09:58:31;;;;;;;10.50;5.30;;;;;;;35.76;42.96;98212.28;105768;1276;108856;-78
2022/08/15 10:01:15;;;;;;;10.40;5.30;;;;;;;35.30;42.61;98210.63;105724;1276;97882;-77
2022/08/15 10:03:43;;;;;;;9.70;4.80;;;;;;;34.49;42.22;98208.32;105989;1276;98445;-78
2022/08/15 10:06:35;;;;;;;;;;;;;;;34.33;42.89;98210.26;105763;1275;111431;-78
2022/08/15 10:09:21;;;;;;;11.70;5.30;;;;;;;34.29;42.71;98209.80;105411;1275;97979;-79
2022/08/15 10:12:09;;;;;;;9.90;5.40;;;;;;;34.24;42.76;98211.77;105805;1277;106945;-77
2022/08/15 10:14:47;;;;;;;10.80;4.40;;;;;;;34.07;42.46;98212.04;105855;1276;98082;-77
2022/08/15 10:17:21;;;;;;;11.40;5.10;;;;;;;33.65;42.10;98206.38;105895;1276;97871;-77
2022/08/15 10:19:56;;;;;;;10.20;4.60;;;;;;;33.34;42.47;98199.86;105760;1278;111446;-81
2022/08/15 10:22:52;;;;;;;8.80;4.70;;;;;;;33.17;42.27;98203.78;105870;1276;98519;-82
2022/08/15 10:25:45;;;;;;;6.90;4.20;;;;;;;33.01;42.06;98203.73;105866;1276;107731;-78
2022/08/15 10:28:14;;;;;;;9.70;4.60;;;;;;;32.82;41.97;98202.89;105860;1276;97964;-78
2022/08/15 10:31:03;;;;;;;10.90;4.50;;;;;;;32.60;41.95;98201.77;105913;1276;96664;-79
2022/08/15 10:33:42;;;;;;;6.30;3.80;;;;;;;32.43;41.88;98201.13;105935;1277;112407;-77
2022/08/15 10:36:33;;;;;;;11.10;4.20;;;;;;;32.27;41.83;98194.30;105801;1276;98351;-79
2022/08/15 10:39:28;;;;;;;8.90;4.30;;;;;;;32.12;41.67;98192.09;105746;1277;107676;-78
2022/08/15 10:42:18;;;;;;;9.00;4.30;;;;;;;32.00;41.79;98189.34;105884;1276;97953;-80
2022/08/15 10:45:10;;;;;;;9.20;5.00;;;;;;;31.84;41.39;98192.13;105940;1276;97987;-79
2022/08/15 10:48:09;;;;;;;8.60;4.40;;;;;;;31.49;41.22;98193.73;105875;1276;111629;-76
2022/08/15 10:51:01;;;;;;;12.60;5.10;;;;;;;31.15;41.17;98197.33;105879;1276;97894;-78
2022/08/15 10:53:32;;;;;;;17.90;8.20;;;;;;;30.97;41.37;98195.16;105757;1277;107758;-78
2022/08/15 10:56:32;;;;;;;32.50;8.10;;;;;;;30.93;41.50;98191.85;106015;1276;98069;-79
2022/08/15 10:59:23;;;;;;;35.10;9.70;;;;;;;30.87;41.56;98188.63;105829;1276;98004;-77
2022/08/15 11:02:27;;;;;;;26.30;9.40;;;;;;;30.84;41.73;98189.81;105698;1279;111490;-84
2022/08/15 11:05:11;;;;;;;13.40;5.40;;;;;;;30.80;41.70;98193.42;105627;1277;97800;-78
2022/08/15 11:07:47;;;;;;;14.00;5.40;;;;;;;30.72;41.84;98192.27;105928;1276;107774;-79
2022/08/15 11:10:30;;;;;;;13.60;5.50;;;;;;;30.58;41.65;98197.56;106246;1276;96387;-81
2022/08/15 11:13:15;;;;;;;10.70;5.00;;;;;;;30.49;41.88;98197.21;105901;1276;97355;-79
2022/08/15 11:15:56;;;;;;;13.50;5.60;;;;;;;30.39;41.80;98192.58;105996;1276;109796;-81
2022/08/15 11:18:34;;;;;;;11.90;5.00;;;;;;;30.22;41.79;98190.76;105989;1276;98381;-80
2022/08/15 11:21:18;;;;;;;11.70;4.80;;;;;;;30.09;41.97;98191.37;105778;1276;110672;-78
2022/08/15 11:23:58;;;;;;;15.40;5.60;;;;;;;29.96;41.85;98189.87;105773;1279;96833;-80
2022/08/15 11:26:43;;;;;;;15.20;5.80;;;;;;;29.86;42.05;98188.28;105883;1276;96050;-70
2022/08/15 11:29:25;;;;;;;9.60;4.70;;;;;;;29.78;42.15;98177.85;105817;1278;112719;-75
2022/08/15 11:31:58;;;;;;;11.60;4.80;;;;;;;29.69;42.14;98182.42;105851;1277;96329;-73
2022/08/15 11:34:47;;;;;;;9.60;4.80;;;;;;;29.60;42.30;98184.79;105766;1276;107759;-67
2022/08/15 11:37:25;;;;;;;24.20;6.10;;;;;;;29.51;42.40;98178.46;105828;1276;97984;-74
2022/08/15 11:39:59;;;;;;;10.30;5.00;;;;;;;29.44;42.31;98177.50;105658;1278;96027;-70
2022/08/15 11:42:30;;;;;;;11.30;5.40;;;;;;;29.34;42.45;98176.83;106485;1276;110382;-80
2022/08/15 11:45:08;;;;;;;17.50;6.10;;;;;;;29.25;42.39;98184.39;105767;1276;97884;-77
2022/08/15 11:47:45;;;;;;;11.40;5.10;;;;;;;29.21;42.68;98178.10;105833;1276;108521;-78
2022/08/15 11:50:39;;;;;;;17.30;6.90;;;;;;;29.16;42.58;98179.23;105781;1278;97964;-81
2022/08/15 11:53:13;;;;;;;15.30;6.70;;;;;;;29.06;42.87;98176.44;105872;1277;96032;-78
2022/08/15 11:55:46;;;;;;;15.00;5.90;;;;;;;29.01;42.70;98176.74;105795;1276;111341;-81
2022/08/15 11:58:15;;;;;;;15.00;6.10;;;;;;;28.96;42.95;98177.67;105938;1276;95916;-81
2022/08/15 12:00:57;;;;;;;16.00;6.50;;;;;;;28.92;43.17;98173.96;105856;1277;107790;-79
2022/08/15 12:03:38;;;;;;;12.90;5.30;;;;;;;28.87;43.15;98169.95;105862;1277;100420;-76
2022/08/15 12:06:32;;;;;;;15.10;6.70;;;;;;;28.81;43.29;98169.48;106197;1276;97884;-79
2022/08/15 12:09:25;;;;;;;17.90;6.70;;;;;;;28.79;43.49;98170.72;106026;1277;111291;-77
2022/08/15 12:12:28;;;;;;;17.70;6.30;;;;;;;28.77;43.51;98167.73;105937;1278;97887;-77
2022/08/15 12:15:20;;;;;;;17.10;7.40;;;;;;;28.78;43.78;98160.09;106035;1277;108356;-71
2022/08/15 12:18:20;;;;;;;12.50;6.00;;;;;;;28.80;44.00;98154.70;106016;1277;97953;-79
2022/08/15 12:21:13;;;;;;;21.20;7.60;;;;;;;28.81;44.14;98150.99;106009;1278;97944;-78
2022/08/15 12:23:41;;;;;;;17.00;6.00;;;;;;;28.80;44.23;98148.02;106153;1277;110846;-79
2022/08/15 12:26:18;;;;;;;12.90;5.70;;;;;;;28.78;44.12;98146.73;106052;1278;97889;-82
2022/08/15 12:29:07;;;;;;;12.60;6.10;;;;;;;28.76;43.87;98146.35;106071;1277;107593;-76
2022/08/15 12:31:43;;;;;;;13.10;6.00;;;;;;;28.75;44.37;98146.26;106032;1277;98002;-75
2022/08/15 12:34:23;;;;;;;12.00;5.80;;;;;;;28.75;44.36;98140.23;105984;1277;98553;-76